createdAt,value
2019-03-13T00:00:53.203Z,57.40
2019-03-13T00:03:21.936Z,57.83
2019-03-13T00:05:50.643Z,50.87
2019-03-13T00:08:19.256Z,50.17
2019-03-13T00:10:47.857Z,49.23
2019-03-13T00:13:20.643Z,44.87
2019-03-13T00:15:50.488Z,43.80
2019-03-13T00:18:22.627Z,47.67
2019-03-13T00:21:04.399Z,46.57
2019-03-13T00:23:32.978Z,47.70
2019-03-13T00:26:01.819Z,53.90
2019-03-13T00:28:30.413Z,46.77
2019-03-13T00:30:58.997Z,48.40
2019-03-13T00:33:27.619Z,45.73
2019-03-13T00:35:58.270Z,45.47
2019-03-13T00:38:26.965Z,48.00
2019-03-13T00:40:55.577Z,49.97
2019-03-13T00:43:24.167Z,47.93
2019-03-13T00:45:52.863Z,49.50
2019-03-13T00:48:21.485Z,48.73
2019-03-13T00:50:50.056Z,43.97
2019-03-13T00:53:18.659Z,51.67
2019-03-13T00:55:47.262Z,54.07
2019-03-13T00:58:35.364Z,55.50
2019-03-13T01:01:11.726Z,55.20
2019-03-13T01:03:44.691Z,57.83
2019-03-13T01:06:19.345Z,57.17
2019-03-13T01:08:47.970Z,57.43
2019-03-13T01:11:18.274Z,59.03
2019-03-13T01:13:46.861Z,56.93
2019-03-13T01:16:16.659Z,53.83
2019-03-13T01:18:45.244Z,53.23
2019-03-13T01:21:13.827Z,60.17
2019-03-13T01:23:42.457Z,59.73
2019-03-13T01:26:11.552Z,57.50
2019-03-13T01:28:41.737Z,60.93
2019-03-13T01:31:20.652Z,58.27
2019-03-13T01:33:49.297Z,58.10
2019-03-13T01:36:18.019Z,58.03
2019-03-13T01:38:46.610Z,61.40
2019-03-13T01:41:15.229Z,62.13
2019-03-13T01:43:47.074Z,62.63
2019-03-13T01:46:15.471Z,61.37
2019-03-13T01:48:44.083Z,61.07
2019-03-13T01:51:12.712Z,61.30
2019-03-13T01:53:41.304Z,66.07
2019-03-13T01:56:09.893Z,66.93
2019-03-13T01:58:38.529Z,66.47
2019-03-13T02:01:08.822Z,66.13
2019-03-13T02:03:37.407Z,68.43
2019-03-13T02:06:06.171Z,74.60
2019-03-13T02:08:37.698Z,66.87
2019-03-13T02:11:06.291Z,65.93
2019-03-13T02:13:37.155Z,62.30
2019-03-13T02:16:05.736Z,67.20
2019-03-13T02:18:34.309Z,70.77
2019-03-13T02:21:02.962Z,69.27
2019-03-13T02:23:34.268Z,68.57
2019-03-13T02:26:02.926Z,70.20
2019-03-13T02:28:31.546Z,73.10
2019-03-13T02:31:00.709Z,72.07
2019-03-13T02:33:29.349Z,72.63
2019-03-13T02:35:57.981Z,74.13
2019-03-13T02:38:27.121Z,74.20
2019-03-13T02:40:57.926Z,68.27
2019-03-13T02:43:26.533Z,73.37
2019-03-13T02:45:55.123Z,77.70
2019-03-13T02:48:23.729Z,69.87
2019-03-13T02:50:52.308Z,70.97
2019-03-13T02:53:21.986Z,69.47
2019-03-13T02:55:50.578Z,72.43
2019-03-13T02:58:19.263Z,79.10
2019-03-13T03:00:49.545Z,74.83
2019-03-13T03:03:19.910Z,74.83
2019-03-13T03:05:48.452Z,73.30
2019-03-13T03:08:17.058Z,75.33
2019-03-13T03:10:47.083Z,81.33
2019-03-13T03:13:15.660Z,74.20
2019-03-13T03:15:44.318Z,72.07
2019-03-13T03:18:12.917Z,75.90
2019-03-13T03:20:41.486Z,71.77
2019-03-13T03:23:10.142Z,71.23
2019-03-13T03:25:38.782Z,71.27
2019-03-13T03:28:24.991Z,72.20
2019-03-13T03:30:54.569Z,71.23
2019-03-13T03:33:23.096Z,71.73
2019-03-13T03:35:51.628Z,71.30
2019-03-13T03:38:20.181Z,68.00
2019-03-13T03:40:48.738Z,66.60
2019-03-13T03:43:17.350Z,65.40
2019-03-13T03:45:45.927Z,69.33
2019-03-13T03:48:14.517Z,72.43
2019-03-13T03:50:43.084Z,68.93
2019-03-13T03:53:11.663Z,68.60
2019-03-13T03:55:40.332Z,65.43
2019-03-13T03:58:08.902Z,63.73
2019-03-13T04:00:37.446Z,64.63
2019-03-13T04:03:07.767Z,66.30
2019-03-13T04:05:38.814Z,64.30
2019-03-13T04:08:07.441Z,62.80
2019-03-13T04:10:36.127Z,66.83
2019-03-13T04:13:04.703Z,68.90
2019-03-13T04:15:33.373Z,61.60
2019-03-13T04:18:01.929Z,63.53
2019-03-13T04:20:30.489Z,60.07
2019-03-13T04:22:59.099Z,58.10
2019-03-13T04:25:29.853Z,60.27
2019-03-13T04:27:58.551Z,56.27
2019-03-13T04:30:27.386Z,58.27
2019-03-13T04:32:56.011Z,56.90
2019-03-13T04:35:24.644Z,51.00
2019-03-13T04:37:53.281Z,53.47
2019-03-13T04:40:21.914Z,50.53
2019-03-13T04:42:50.577Z,52.63
2019-03-13T04:45:19.141Z,53.40
2019-03-13T04:47:48.309Z,53.27
2019-03-13T04:50:16.938Z,51.07
2019-03-13T04:52:45.574Z,51.27
2019-03-13T04:55:15.423Z,52.67
2019-03-13T04:57:44.109Z,47.83
2019-03-13T05:00:16.944Z,51.50
2019-03-13T05:02:45.571Z,49.73
2019-03-13T05:05:32.300Z,45.53
2019-03-13T05:08:00.846Z,47.67
2019-03-13T05:10:29.412Z,46.13
2019-03-13T05:12:58.041Z,45.97
2019-03-13T05:15:26.660Z,40.33
2019-03-13T05:17:55.202Z,46.30
2019-03-13T05:20:23.803Z,46.73
2019-03-13T05:22:52.357Z,43.90
2019-03-13T05:25:20.905Z,50.20
2019-03-13T05:27:49.474Z,41.07
2019-03-13T05:30:18.190Z,42.93
2019-03-13T05:32:46.753Z,40.47
2019-03-13T05:35:15.307Z,45.00
2019-03-13T05:37:43.865Z,39.43
2019-03-13T05:40:13.259Z,38.00
2019-03-13T05:42:41.875Z,38.20
2019-03-13T05:45:10.426Z,43.47
2019-03-13T05:47:38.988Z,41.10
2019-03-13T05:50:10.106Z,38.00
2019-03-13T05:52:38.794Z,38.50
2019-03-13T05:55:07.484Z,38.47
2019-03-13T05:57:42.022Z,40.40
2019-03-13T06:00:12.960Z,34.80
2019-03-13T06:02:41.614Z,42.43
2019-03-13T06:05:10.568Z,38.43
2019-03-13T06:07:39.119Z,37.40
2019-03-13T06:10:13.004Z,37.07
2019-03-13T06:12:41.561Z,35.23
2019-03-13T06:15:18.478Z,41.40
2019-03-13T06:17:51.633Z,33.60
2019-03-13T06:20:20.193Z,37.80
2019-03-13T06:22:50.354Z,37.90
2019-03-13T06:25:18.927Z,34.33
2019-03-13T06:27:57.047Z,41.13
2019-03-13T06:30:25.738Z,37.73
2019-03-13T06:32:54.295Z,35.93
2019-03-13T06:35:24.215Z,34.00
2019-03-13T06:37:52.818Z,32.83
2019-03-13T06:40:22.120Z,34.60
2019-03-13T06:42:50.698Z,36.17
2019-03-13T06:45:19.528Z,41.53
2019-03-13T06:47:48.714Z,36.17
2019-03-13T06:50:23.871Z,34.23
2019-03-13T06:52:53.070Z,35.87
2019-03-13T06:55:21.635Z,38.53
2019-03-13T06:57:50.902Z,35.60
2019-03-13T07:00:25.506Z,37.60
2019-03-13T07:02:58.390Z,36.67
2019-03-13T07:05:35.548Z,33.57
2019-03-13T07:08:08.997Z,33.67
2019-03-13T07:10:44.105Z,39.13
2019-03-13T07:13:20.484Z,31.53
2019-03-13T07:15:52.638Z,30.30
2019-03-13T07:18:38.019Z,31.70
2019-03-13T07:21:08.579Z,27.70
2019-03-13T07:23:47.969Z,31.93
2019-03-13T07:26:18.438Z,25.47
2019-03-13T07:28:48.667Z,23.70
2019-03-13T07:31:20.455Z,27.57
2019-03-13T07:34:00.624Z,27.50
2019-03-13T07:36:49.727Z,26.07
2019-03-13T07:39:31.044Z,23.70
2019-03-13T07:42:09.994Z,20.93
2019-03-13T07:44:49.299Z,25.33
2019-03-13T07:47:19.500Z,25.63
2019-03-13T07:50:06.898Z,24.57
2019-03-13T07:52:37.113Z,26.67
2019-03-13T07:55:24.554Z,21.93
2019-03-13T07:58:03.313Z,27.73
2019-03-13T08:00:45.252Z,25.87
2019-03-13T08:03:20.950Z,23.43
2019-03-13T08:05:58.457Z,24.17
2019-03-13T08:08:28.661Z,24.20
2019-03-13T08:10:58.936Z,27.83
2019-03-13T08:13:29.217Z,23.50
2019-03-13T08:15:59.450Z,22.03
2019-03-13T08:18:44.639Z,28.57
2019-03-13T08:21:14.982Z,21.20
2019-03-13T08:23:54.138Z,26.80
2019-03-13T08:26:24.351Z,26.50
2019-03-13T08:29:10.727Z,22.83
2019-03-13T08:31:49.888Z,26.97
2019-03-13T08:34:29.064Z,23.27
2019-03-13T08:36:59.347Z,25.20
2019-03-13T08:39:29.642Z,22.77
2019-03-13T08:42:17.642Z,23.43
2019-03-13T08:44:56.904Z,22.43
2019-03-13T08:47:32.849Z,22.40
2019-03-13T08:50:03.622Z,26.20
2019-03-13T08:52:33.948Z,26.73
2019-03-13T08:55:07.018Z,24.03
2019-03-13T08:57:40.456Z,26.30
2019-03-13T09:00:27.499Z,21.90
2019-03-13T09:03:03.884Z,22.53
2019-03-13T09:05:46.232Z,23.20
2019-03-13T09:08:19.110Z,28.33
2019-03-13T09:11:04.281Z,23.57
2019-03-13T09:13:37.267Z,23.23
2019-03-13T09:16:07.626Z,22.23
2019-03-13T09:18:56.372Z,27.67
2019-03-13T09:21:41.589Z,26.00
2019-03-13T09:24:11.885Z,26.73
2019-03-13T09:26:51.083Z,22.90
2019-03-13T09:29:28.106Z,26.90
2019-03-13T09:32:01.027Z,23.47
2019-03-13T09:34:49.491Z,23.80
2019-03-13T09:37:35.755Z,20.07
2019-03-13T09:40:20.279Z,22.93
2019-03-13T09:43:06.374Z,23.77
2019-03-13T09:45:50.962Z,20.80
2019-03-13T09:48:32.716Z,18.80
2019-03-13T09:51:04.495Z,18.87
2019-03-13T09:53:50.462Z,20.50
2019-03-13T09:56:26.653Z,25.70
2019-03-13T09:59:02.762Z,22.43
2019-03-13T10:01:41.678Z,23.07
2019-03-13T10:04:30.166Z,22.43
2019-03-13T10:07:18.650Z,20.63
2019-03-13T10:10:07.227Z,19.83
2019-03-13T10:12:37.463Z,22.40
2019-03-13T10:15:10.943Z,19.17
2019-03-13T10:17:58.704Z,20.65
2019-03-13T10:20:29.020Z,23.90
2019-03-13T10:23:14.429Z,21.57
2019-03-13T10:25:45.477Z,22.83
2019-03-13T10:28:24.425Z,18.30
2019-03-13T10:31:01.792Z,19.90
2019-03-13T10:33:43.883Z,23.20
2019-03-13T10:36:19.896Z,22.97
2019-03-13T10:38:52.269Z,25.57
2019-03-13T10:41:31.487Z,22.70
2019-03-13T10:44:08.845Z,20.53
2019-03-13T10:46:44.701Z,21.67
2019-03-13T10:49:18.298Z,21.37
2019-03-13T10:51:57.289Z,20.87
2019-03-13T10:54:29.764Z,21.07
2019-03-13T10:57:03.875Z,23.17
2019-03-13T10:59:44.685Z,20.93
2019-03-13T11:02:25.487Z,24.15
2019-03-13T11:04:58.399Z,21.03
2019-03-13T11:07:44.600Z,24.60
2019-03-13T11:10:21.127Z,21.87
2019-03-13T11:12:52.547Z,21.50
2019-03-13T11:15:47.823Z,24.83
2019-03-13T11:18:21.201Z,22.87
2019-03-13T11:20:51.536Z,22.80
2019-03-13T11:23:31.011Z,25.93
2019-03-13T11:26:07.399Z,24.93
2019-03-13T11:28:59.893Z,25.30
2019-03-13T11:31:30.117Z,25.03
2019-03-13T11:34:03.131Z,24.13
2019-03-13T11:36:41.380Z,27.93
2019-03-13T11:39:12.170Z,28.47
2019-03-13T11:41:45.280Z,24.20
2019-03-13T11:44:32.307Z,23.87
2019-03-13T11:47:14.014Z,22.60
2019-03-13T11:49:46.913Z,28.10
2019-03-13T11:52:19.915Z,25.37
2019-03-13T11:54:53.977Z,25.00
2019-03-13T11:57:31.009Z,27.00
2019-03-13T12:00:15.743Z,26.10
2019-03-13T12:03:02.189Z,30.33
2019-03-13T12:05:32.527Z,24.13
2019-03-13T12:08:11.941Z,25.40
2019-03-13T12:10:45.106Z,26.73
2019-03-13T12:13:31.555Z,26.50
2019-03-13T12:16:01.761Z,26.40
2019-03-13T12:18:35.668Z,26.60
2019-03-13T12:21:08.849Z,23.00
2019-03-13T12:23:54.533Z,25.57
2019-03-13T12:26:28.959Z,27.70
2019-03-13T12:32:30.308Z,30.57
2019-03-13T12:35:01.263Z,28.03
2019-03-13T12:37:32.726Z,26.70
2019-03-13T12:40:22.185Z,27.83
2019-03-13T12:43:02.820Z,27.07
2019-03-13T12:45:35.921Z,27.67
2019-03-13T12:48:16.514Z,26.67
2019-03-13T12:50:43.423Z,24.93
2019-03-13T12:53:30.363Z,25.77
2019-03-13T12:56:18.070Z,24.43
2019-03-13T12:58:51.147Z,28.53
2019-03-13T13:01:24.260Z,26.70
2019-03-13T13:04:03.832Z,23.93
2019-03-13T13:06:34.204Z,21.97
2019-03-13T13:09:04.499Z,23.33
2019-03-13T13:11:51.844Z,26.30
2019-03-13T13:14:22.242Z,24.90
2019-03-13T13:16:56.237Z,29.13
2019-03-13T13:19:27.645Z,24.03
2019-03-13T13:21:57.833Z,23.77
2019-03-13T13:24:26.421Z,23.67
2019-03-13T13:26:55.147Z,23.27
2019-03-13T13:29:24.074Z,23.00
2019-03-13T13:31:55.226Z,25.97
2019-03-13T13:34:25.921Z,23.40
2019-03-13T13:36:54.491Z,24.53
2019-03-13T13:39:25.313Z,28.23
2019-03-13T13:41:54.950Z,23.73
2019-03-13T13:44:31.236Z,25.33
2019-03-13T13:47:02.113Z,20.10
2019-03-13T13:49:30.731Z,19.70
2019-03-13T13:52:00.863Z,21.73
2019-03-13T13:54:30.785Z,19.70
2019-03-13T13:56:59.380Z,15.63
2019-03-13T13:59:29.475Z,22.27
2019-03-13T14:01:58.071Z,19.00
2019-03-13T14:04:26.654Z,25.53
2019-03-13T14:06:55.273Z,19.77
2019-03-13T14:09:23.860Z,15.40
2019-03-13T14:11:52.445Z,15.27
2019-03-13T14:17:15.013Z,15.57
2019-03-13T14:19:43.677Z,15.03
2019-03-13T14:22:13.721Z,15.70
2019-03-13T14:24:42.359Z,18.03
2019-03-13T14:27:14.994Z,17.20
2019-03-13T14:29:41.472Z,12.57
2019-03-13T14:32:10.339Z,19.03
2019-03-13T14:34:38.995Z,14.30
2019-03-13T14:37:09.162Z,18.13
2019-03-13T14:39:37.795Z,18.57
2019-03-13T14:42:06.616Z,15.97
2019-03-13T14:44:35.682Z,17.50
2019-03-13T14:47:07.770Z,15.67
2019-03-13T14:49:36.455Z,13.07
2019-03-13T14:52:05.153Z,13.67
2019-03-13T14:54:35.271Z,13.23
2019-03-13T14:57:03.954Z,14.83
2019-03-13T14:59:32.589Z,11.17
2019-03-13T15:02:01.273Z,15.30
2019-03-13T15:04:31.553Z,12.77
2019-03-13T15:07:00.223Z,13.03
2019-03-13T15:09:28.833Z,12.37
2019-03-13T15:11:57.556Z,13.63
2019-03-13T15:14:26.866Z,13.97
2019-03-13T15:16:55.466Z,16.40
2019-03-13T15:19:24.068Z,14.80
2019-03-13T15:21:52.800Z,15.17
2019-03-13T15:24:21.419Z,16.03
2019-03-13T15:26:50.016Z,16.70
2019-03-13T15:29:18.582Z,15.70
2019-03-13T15:31:47.238Z,20.97
2019-03-13T15:34:15.873Z,16.80
2019-03-13T15:36:44.505Z,17.73
2019-03-13T15:39:13.258Z,15.53
2019-03-13T15:41:43.459Z,16.90
2019-03-13T15:44:11.938Z,16.73
2019-03-13T15:46:40.514Z,15.83
2019-03-13T15:49:09.649Z,17.10
2019-03-13T15:51:38.924Z,14.80
2019-03-13T15:54:07.680Z,16.97
2019-03-13T15:56:36.268Z,20.97
2019-03-13T15:59:04.854Z,15.50
2019-03-13T16:02:09.546Z,19.73
2019-03-13T16:04:38.130Z,18.63
2019-03-13T16:07:07.137Z,20.67
2019-03-13T16:09:35.722Z,15.47
2019-03-13T16:12:04.426Z,18.47
2019-03-13T16:14:36.413Z,19.10
2019-03-13T16:17:05.110Z,19.37
2019-03-13T16:19:33.760Z,20.57
2019-03-13T16:22:03.420Z,19.83
2019-03-13T16:24:32.037Z,18.27
2019-03-13T16:27:00.683Z,17.63
2019-03-13T16:29:30.929Z,19.03
2019-03-13T16:31:59.695Z,22.53
2019-03-13T16:34:29.350Z,23.07
2019-03-13T16:36:58.753Z,20.13
2019-03-13T16:39:27.887Z,20.27
2019-03-13T16:41:57.261Z,20.73
2019-03-13T16:44:26.362Z,19.60
2019-03-13T16:46:55.092Z,19.40
2019-03-13T16:49:23.742Z,24.00
2019-03-13T16:51:52.440Z,28.17
2019-03-13T16:54:21.010Z,21.90
2019-03-13T16:56:49.618Z,31.03
2019-03-13T16:59:19.897Z,25.07
2019-03-13T17:01:50.110Z,27.77
2019-03-13T17:04:18.854Z,31.37
2019-03-13T17:06:47.524Z,34.53
2019-03-13T17:09:16.196Z,29.47
2019-03-13T17:11:45.663Z,29.83
2019-03-13T17:14:14.413Z,21.60
2019-03-13T17:16:42.962Z,27.20
2019-03-13T17:19:11.602Z,23.33
2019-03-13T17:21:40.382Z,20.40
2019-03-13T17:24:09.124Z,23.83
2019-03-13T17:26:37.657Z,27.47
2019-03-13T17:29:06.434Z,30.53
2019-03-13T17:31:35.017Z,25.70
2019-03-13T17:34:03.695Z,24.23
2019-03-13T17:36:34.865Z,28.27
2019-03-13T17:39:07.162Z,26.87
2019-03-13T17:41:35.736Z,27.60
2019-03-13T17:44:04.368Z,27.97
2019-03-13T17:46:33.008Z,27.43
2019-03-13T17:49:01.573Z,30.03
2019-03-13T17:51:30.714Z,26.77
2019-03-13T17:53:59.320Z,33.70
2019-03-13T17:56:27.931Z,25.93
2019-03-13T17:58:56.590Z,30.83
2019-03-13T18:01:25.632Z,34.43
2019-03-13T18:03:54.215Z,35.17
2019-03-13T18:06:22.847Z,35.83
2019-03-13T18:08:51.927Z,40.10
2019-03-13T18:11:20.611Z,36.47
2019-03-13T18:13:49.243Z,31.03
2019-03-13T18:16:17.823Z,32.73
2019-03-13T18:18:47.501Z,37.87
2019-03-13T18:21:20.622Z,41.10
2019-03-13T18:23:49.253Z,35.50
2019-03-13T18:26:17.900Z,37.60
2019-03-13T18:28:46.589Z,39.83
2019-03-13T18:31:16.806Z,38.63
2019-03-13T18:33:45.378Z,38.23
2019-03-13T18:36:15.610Z,40.37
2019-03-13T18:38:45.884Z,41.03
2019-03-13T18:41:15.207Z,39.63
2019-03-13T18:43:46.475Z,38.37
2019-03-13T18:46:15.152Z,34.80
2019-03-13T18:48:45.371Z,41.27
2019-03-13T18:51:13.999Z,41.57
2019-03-13T18:53:42.635Z,37.13
2019-03-13T18:56:11.343Z,37.83
2019-03-13T18:58:41.079Z,38.67
2019-03-13T19:01:09.749Z,42.07
2019-03-13T19:03:38.411Z,38.53
2019-03-13T19:06:07.050Z,39.17
2019-03-13T19:08:35.687Z,38.73
2019-03-13T19:11:04.407Z,39.57
2019-03-13T19:13:33.066Z,37.97
2019-03-13T19:16:02.115Z,42.33
2019-03-13T19:18:35.427Z,40.10
2019-03-13T19:21:04.579Z,40.13
2019-03-13T19:23:34.763Z,42.27
2019-03-13T19:26:03.427Z,47.27
2019-03-13T19:28:35.283Z,46.27
2019-03-13T19:31:04.097Z,50.77
2019-03-13T19:33:32.663Z,49.97
2019-03-13T19:36:01.263Z,46.77
2019-03-13T19:38:29.841Z,47.23
2019-03-13T19:40:58.489Z,46.83
2019-03-13T19:43:28.761Z,47.20
2019-03-13T19:45:57.311Z,45.77
2019-03-13T19:48:27.566Z,48.07
2019-03-13T19:50:56.806Z,48.80
2019-03-13T19:53:25.468Z,43.17
2019-03-13T19:55:54.139Z,46.13
2019-03-13T19:58:25.323Z,48.50
2019-03-13T20:00:53.961Z,43.23
2019-03-13T20:03:23.134Z,50.53
2019-03-13T20:05:51.710Z,46.77
2019-03-13T20:08:20.371Z,45.83
2019-03-13T20:10:57.828Z,47.87
2019-03-13T20:13:28.250Z,51.30
2019-03-13T20:19:36.789Z,48.13
2019-03-13T20:22:06.008Z,51.43
2019-03-13T20:24:34.580Z,53.57
2019-03-13T20:27:04.581Z,50.87
2019-03-13T20:29:33.307Z,51.67
2019-03-13T20:35:36.896Z,53.07
2019-03-13T20:38:05.685Z,47.97
2019-03-13T20:40:34.392Z,49.20
2019-03-13T20:43:03.176Z,48.90
2019-03-13T20:45:32.041Z,45.47
2019-03-13T20:48:01.103Z,48.90
2019-03-13T20:50:36.615Z,51.67
2019-03-13T20:53:00.992Z,48.23
2019-03-13T20:55:30.717Z,49.90
2019-03-13T20:57:59.312Z,43.63
2019-03-13T21:00:29.559Z,51.60
2019-03-13T21:02:59.820Z,51.70
2019-03-13T21:05:29.256Z,50.97
2019-03-13T21:07:58.125Z,48.57
2019-03-13T21:10:26.794Z,54.83
2019-03-13T21:12:55.492Z,49.40
2019-03-13T21:15:28.066Z,49.23
2019-03-13T21:17:57.625Z,51.90
2019-03-13T21:20:26.379Z,51.87
2019-03-13T21:22:58.967Z,47.90
2019-03-13T21:25:29.596Z,48.73
2019-03-13T21:27:58.244Z,52.00
2019-03-13T21:30:30.123Z,52.87
2019-03-13T21:33:00.351Z,52.57
2019-03-13T21:35:29.008Z,49.70
2019-03-13T21:37:57.698Z,49.20
2019-03-13T21:40:32.125Z,50.80
2019-03-13T21:42:59.878Z,53.57
2019-03-13T21:45:40.359Z,55.00
2019-03-13T21:48:01.606Z,54.50
2019-03-13T21:50:33.412Z,57.20
2019-03-13T21:53:02.156Z,53.07
2019-03-13T21:55:30.914Z,55.70
2019-03-13T21:58:00.667Z,56.57
2019-03-13T22:00:29.366Z,57.03
2019-03-13T22:02:58.013Z,60.23
2019-03-13T22:05:27.530Z,52.80
2019-03-13T22:07:56.463Z,56.20
2019-03-13T22:10:26.618Z,56.90
2019-03-13T22:12:55.202Z,58.83
2019-03-13T22:15:24.223Z,57.57
2019-03-13T22:17:53.795Z,57.47
2019-03-13T22:20:22.418Z,58.13
2019-03-13T22:22:51.004Z,60.73
2019-03-13T22:25:20.259Z,60.03
2019-03-13T22:27:49.058Z,63.07
2019-03-13T22:30:22.549Z,64.87
2019-03-13T22:32:51.539Z,63.70
2019-03-13T22:35:20.250Z,59.17
2019-03-13T22:37:48.985Z,62.57
2019-03-13T22:40:18.490Z,60.70
2019-03-13T22:42:47.207Z,62.77
2019-03-13T22:45:17.779Z,65.17
2019-03-13T22:47:48.852Z,63.83
2019-03-13T22:50:21.814Z,60.77
2019-03-13T22:52:50.528Z,58.97
2019-03-13T22:55:19.176Z,63.17
2019-03-13T22:57:47.969Z,59.30
2019-03-13T23:00:27.335Z,61.80
2019-03-13T23:02:55.976Z,59.30
2019-03-13T23:05:24.746Z,61.90
2019-03-13T23:07:53.467Z,63.57
2019-03-13T23:10:30.903Z,60.57
2019-03-13T23:12:59.628Z,63.57
2019-03-13T23:15:28.430Z,58.70
2019-03-13T23:17:57.114Z,61.13
2019-03-13T23:20:25.792Z,61.57
2019-03-13T23:22:54.350Z,57.90
2019-03-13T23:25:22.908Z,58.23
2019-03-13T23:27:51.602Z,59.23
2019-03-13T23:30:20.192Z,58.90
2019-03-13T23:33:07.008Z,61.07
2019-03-13T23:35:35.549Z,59.23
2019-03-13T23:38:04.578Z,58.17
2019-03-13T23:40:34.092Z,57.37
2019-03-13T23:43:02.644Z,58.10
2019-03-13T23:45:31.207Z,56.83
2019-03-13T23:47:59.877Z,55.27
2019-03-13T23:50:28.511Z,54.47
2019-03-13T23:52:57.091Z,56.07
2019-03-13T23:55:25.690Z,53.90
2019-03-13T23:57:54.247Z,52.77
